createdAt,value
2018-01-23T00:00:42.924Z,0
2018-01-23T00:01:43.181Z,0
2018-01-23T00:02:42.898Z,0
2018-01-23T00:03:42.882Z,0
2018-01-23T00:04:42.588Z,0
2018-01-23T00:05:43.114Z,0
2018-01-23T00:06:42.821Z,0
2018-01-23T00:07:42.555Z,0
2018-01-23T00:08:43.054Z,0
2018-01-23T00:09:42.786Z,0
2018-01-23T00:10:43.053Z,0
2018-01-23T00:11:42.736Z,0
2018-01-23T00:12:42.722Z,0
2018-01-23T00:13:42.989Z,0
2018-01-23T00:14:42.983Z,0
2018-01-23T00:15:42.667Z,0
2018-01-23T00:16:42.682Z,0
2018-01-23T00:17:42.630Z,0
2018-01-23T00:18:42.345Z,0
2018-01-23T00:19:42.609Z,0
2018-01-23T00:20:42.317Z,0
2018-01-23T00:21:42.576Z,0
2018-01-23T00:22:42.814Z,0
2018-01-23T00:23:42.525Z,0
2018-01-23T00:24:42.524Z,0
2018-01-23T00:25:42.509Z,0
2018-01-23T00:26:42.746Z,0
2018-01-23T00:27:42.471Z,0
2018-01-23T00:28:42.711Z,0
2018-01-23T00:29:42.709Z,0
2018-01-23T00:30:42.407Z,0
2018-01-23T00:31:42.154Z,0
2018-01-23T00:32:42.911Z,0
2018-01-23T00:33:42.621Z,0
2018-01-23T00:34:42.336Z,0
2018-01-23T00:35:42.592Z,0
2018-01-23T00:36:42.302Z,0
2018-01-23T00:37:42.284Z,0
2018-01-23T00:38:42.291Z,0
2018-01-23T00:39:42.288Z,0
2018-01-23T00:40:42.234Z,0
2018-01-23T00:41:42.218Z,0
2018-01-23T00:42:42.214Z,0
2018-01-23T00:43:42.204Z,0
2018-01-23T00:44:42.162Z,0
2018-01-23T00:45:42.416Z,0
2018-01-23T00:46:42.196Z,0
2018-01-23T00:47:42.124Z,0
2018-01-23T00:48:42.369Z,0
2018-01-23T00:49:41.822Z,0
2018-01-23T00:50:42.058Z,0
2018-01-23T00:51:41.793Z,0
2018-01-23T00:52:41.775Z,0
2018-01-23T00:53:42.016Z,0
2018-01-23T00:54:41.725Z,0
2018-01-23T00:55:41.721Z,0
2018-01-23T00:56:41.989Z,0
2018-01-23T00:57:41.948Z,0
2018-01-23T00:58:41.931Z,0
2018-01-23T00:59:41.914Z,0
2018-01-23T01:00:41.886Z,0
2018-01-23T01:01:41.867Z,0
2018-01-23T01:02:41.876Z,0
2018-01-23T01:03:42.103Z,0
2018-01-23T01:04:41.815Z,0
2018-01-23T01:05:42.067Z,0
2018-01-23T01:06:41.784Z,0
2018-01-23T01:07:42.047Z,0
2018-01-23T01:08:41.766Z,0
2018-01-23T01:09:41.998Z,0
2018-01-23T01:10:41.982Z,0
2018-01-23T01:11:41.722Z,0
2018-01-23T01:12:41.945Z,0
2018-01-23T01:13:41.393Z,0
2018-01-23T01:14:41.680Z,0
2018-01-23T01:15:41.625Z,0
2018-01-23T01:16:41.340Z,0
2018-01-23T01:17:41.589Z,0
2018-01-23T01:18:41.572Z,0
2018-01-23T01:19:41.555Z,0
2018-01-23T01:20:41.273Z,0
2018-01-23T01:21:41.518Z,0
2018-01-23T01:22:41.233Z,0
2018-01-23T01:23:41.752Z,0
2018-01-23T01:24:41.209Z,0
2018-01-23T01:25:41.724Z,0
2018-01-23T01:26:41.439Z,0
2018-01-23T01:27:41.422Z,0
2018-01-23T01:28:41.732Z,0
2018-01-23T01:29:41.650Z,0
2018-01-23T01:30:41.363Z,0
2018-01-23T01:31:41.346Z,0
2018-01-23T01:32:41.335Z,0
2018-01-23T01:33:41.593Z,0
2018-01-23T01:34:41.568Z,0
2018-01-23T01:35:41.288Z,0
2018-01-23T01:36:41.268Z,0
2018-01-23T01:37:40.980Z,0
2018-01-23T01:38:40.956Z,0
2018-01-23T01:39:41.480Z,0
2018-01-23T01:40:40.930Z,0
2018-01-23T01:41:40.922Z,0
2018-01-23T01:42:41.154Z,0
2018-01-23T01:43:41.149Z,0
2018-01-23T01:44:41.539Z,0
2018-01-23T01:45:41.105Z,0
2018-01-23T01:46:41.085Z,0
2018-01-23T01:47:41.611Z,0
2018-01-23T01:48:41.049Z,0
2018-01-23T01:49:41.037Z,0
2018-01-23T01:50:41.013Z,0
2018-01-23T01:51:40.748Z,0
2018-01-23T01:52:41.277Z,0
2018-01-23T01:53:41.228Z,0
2018-01-23T01:54:40.943Z,0
2018-01-23T01:55:40.657Z,0
2018-01-23T01:56:40.910Z,0
2018-01-23T01:57:40.632Z,0
2018-01-23T01:58:40.624Z,0
2018-01-23T01:59:41.134Z,0
2018-01-23T02:00:40.570Z,0
2018-01-23T02:01:41.116Z,0
2018-01-23T02:02:40.806Z,0
2018-01-23T02:03:41.064Z,0
2018-01-23T02:04:41.047Z,0
2018-01-23T02:05:41.325Z,0
2018-01-23T02:06:40.464Z,0
2018-01-23T02:07:41.008Z,0
2018-01-23T02:08:40.453Z,0
2018-01-23T02:09:40.699Z,0
2018-01-23T02:10:40.687Z,0
2018-01-23T02:11:40.379Z,0
2018-01-23T02:12:40.639Z,0
2018-01-23T02:13:40.649Z,0
2018-01-23T02:14:40.894Z,0
2018-01-23T02:15:40.330Z,0
2018-01-23T02:16:40.844Z,0
2018-01-23T02:17:40.813Z,0
2018-01-23T02:18:40.534Z,0
2018-01-23T02:19:40.241Z,0
2018-01-23T02:20:40.220Z,0
2018-01-23T02:21:41.017Z,0
2018-01-23T02:22:40.466Z,0
2018-01-23T02:23:40.715Z,0
2018-01-23T02:24:40.153Z,0
2018-01-23T02:25:40.236Z,0
2018-01-23T02:26:40.392Z,0
2018-01-23T02:27:40.660Z,0
2018-01-23T02:28:40.372Z,0
2018-01-23T02:29:40.616Z,0
2018-01-23T02:30:40.615Z,0
2018-01-23T02:31:40.318Z,0
2018-01-23T02:32:40.290Z,0
2018-01-23T02:33:40.268Z,0
2018-01-23T02:34:40.250Z,0
2018-01-23T02:35:40.530Z,0
2018-01-23T02:36:40.242Z,0
2018-01-23T02:37:40.468Z,0
2018-01-23T02:38:40.454Z,0
2018-01-23T02:39:40.162Z,0
2018-01-23T02:40:40.440Z,0
2018-01-23T02:41:40.153Z,0
2018-01-23T02:42:40.113Z,0
2018-01-23T02:43:40.386Z,0
2018-01-23T02:44:40.096Z,0
2018-01-23T02:45:39.803Z,0
2018-01-23T02:46:39.773Z,0
2018-01-23T02:47:40.054Z,0
2018-01-23T02:48:40.014Z,0
2018-01-23T02:49:40.557Z,0
2018-01-23T02:50:39.752Z,0
2018-01-23T02:51:39.687Z,0
2018-01-23T02:52:40.493Z,0
2018-01-23T02:53:40.206Z,0
2018-01-23T02:54:40.175Z,0
2018-01-23T02:55:39.935Z,0
2018-01-23T02:56:39.871Z,0
2018-01-23T02:57:39.872Z,0
2018-01-23T02:58:39.848Z,0
2018-01-23T02:59:39.565Z,0
2018-01-23T03:00:39.808Z,0
2018-01-23T03:01:39.780Z,0
2018-01-23T03:02:40.049Z,0
2018-01-23T03:03:39.752Z,0
2018-01-23T03:04:39.741Z,0
2018-01-23T03:05:40.266Z,0
2018-01-23T03:06:39.697Z,0
2018-01-23T03:07:39.952Z,0
2018-01-23T03:08:40.214Z,0
2018-01-23T03:09:39.674Z,0
2018-01-23T03:10:39.630Z,0
2018-01-23T03:11:39.353Z,0
2018-01-23T03:12:39.868Z,0
2018-01-23T03:13:39.846Z,0
2018-01-23T03:14:39.308Z,0
2018-01-23T03:15:39.573Z,0
2018-01-23T03:16:39.546Z,0
2018-01-23T03:17:39.780Z,0
2018-01-23T03:18:39.220Z,0
2018-01-23T03:19:39.759Z,0
2018-01-23T03:20:39.489Z,0
2018-01-23T03:21:39.495Z,0
2018-01-23T03:22:39.424Z,0
2018-01-23T03:23:39.136Z,0
2018-01-23T03:24:39.679Z,0
2018-01-23T03:25:39.367Z,0
2018-01-23T03:26:39.630Z,0
2018-01-23T03:27:39.626Z,0
2018-01-23T03:28:39.330Z,0
2018-01-23T03:29:39.301Z,0
2018-01-23T03:30:39.020Z,0
2018-01-23T03:31:39.814Z,0
2018-01-23T03:32:39.252Z,0
2018-01-23T03:33:38.981Z,0
2018-01-23T03:34:39.276Z,0
2018-01-23T03:35:39.221Z,0
2018-01-23T03:36:39.212Z,0
2018-01-23T03:37:39.456Z,0
2018-01-23T03:38:39.146Z,0
2018-01-23T03:39:39.139Z,0
2018-01-23T03:40:38.867Z,0
2018-01-23T03:41:39.129Z,0
2018-01-23T03:42:39.089Z,0
2018-01-23T03:43:39.070Z,0
2018-01-23T03:44:38.773Z,0
2018-01-23T03:45:39.303Z,0
2018-01-23T03:46:38.738Z,0
2018-01-23T03:47:38.725Z,0
2018-01-23T03:48:38.705Z,0
2018-01-23T03:49:39.507Z,0
2018-01-23T03:50:38.941Z,0
2018-01-23T03:51:38.929Z,0
2018-01-23T03:52:38.923Z,0
2018-01-23T03:53:38.633Z,0
2018-01-23T03:54:38.880Z,0
2018-01-23T03:55:38.697Z,0
2018-01-23T03:56:38.836Z,0
2018-01-23T03:57:39.361Z,0
2018-01-23T03:58:39.363Z,0
2018-01-23T03:59:38.839Z,0
2018-01-23T04:00:38.500Z,0
2018-01-23T04:01:39.023Z,0
2018-01-23T04:02:38.748Z,0
2018-01-23T04:03:38.998Z,0
2018-01-23T04:04:38.464Z,0
2018-01-23T04:05:38.694Z,0
2018-01-23T04:06:38.667Z,0
2018-01-23T04:07:38.927Z,0
2018-01-23T04:08:38.365Z,0
2018-01-23T04:09:38.616Z,0
2018-01-23T04:10:38.599Z,0
2018-01-23T04:11:38.313Z,0
2018-01-23T04:12:38.572Z,0
2018-01-23T04:13:38.817Z,0
2018-01-23T04:14:38.566Z,0
2018-01-23T04:15:38.521Z,0
2018-01-23T04:16:38.773Z,0
2018-01-23T04:17:38.500Z,0
2018-01-23T04:18:38.465Z,0
2018-01-23T04:19:38.460Z,0
2018-01-23T04:20:38.717Z,0
2018-01-23T04:21:38.412Z,0
2018-01-23T04:22:38.941Z,0
2018-01-23T04:23:38.108Z,0
2018-01-23T04:24:38.108Z,0
2018-01-23T04:25:38.342Z,0
2018-01-23T04:26:38.060Z,0
2018-01-23T04:27:38.051Z,0
2018-01-23T04:28:38.292Z,0
2018-01-23T04:29:38.275Z,0
2018-01-23T04:30:38.016Z,0
2018-01-23T04:31:38.239Z,0
2018-01-23T04:32:37.971Z,0
2018-01-23T04:33:38.228Z,0
2018-01-23T04:34:38.490Z,0
2018-01-23T04:35:37.900Z,0
2018-01-23T04:36:38.444Z,0
2018-01-23T04:37:37.875Z,0
2018-01-23T04:38:38.154Z,0
2018-01-23T04:39:38.121Z,0
2018-01-23T04:40:38.361Z,0
2018-01-23T04:41:37.827Z,0
2018-01-23T04:42:38.322Z,0
2018-01-23T04:43:37.764Z,0
2018-01-23T04:44:38.020Z,0
2018-01-23T04:45:38.299Z,0
2018-01-23T04:46:38.263Z,0
2018-01-23T04:47:38.233Z,0
2018-01-23T04:48:37.969Z,0
2018-01-23T04:49:37.955Z,0
2018-01-23T04:50:37.914Z,0
2018-01-23T04:51:37.651Z,0
2018-01-23T04:52:37.890Z,0
2018-01-23T04:53:38.136Z,0
2018-01-23T04:54:38.385Z,0
2018-01-23T04:55:37.828Z,0
2018-01-23T04:56:38.105Z,0
2018-01-23T04:57:38.067Z,0
2018-01-23T04:58:37.523Z,0
2018-01-23T04:59:37.774Z,0
2018-01-23T05:00:38.012Z,0
2018-01-23T05:01:37.466Z,0
2018-01-23T05:02:37.728Z,0
2018-01-23T05:03:37.959Z,0
2018-01-23T05:04:37.693Z,0
2018-01-23T05:05:37.661Z,0
2018-01-23T05:06:37.419Z,0
2018-01-23T05:07:37.895Z,0
2018-01-23T05:08:37.634Z,0
2018-01-23T05:09:37.333Z,0
2018-01-23T05:10:37.616Z,0
2018-01-23T05:11:37.284Z,0
2018-01-23T05:12:37.814Z,0
2018-01-23T05:13:37.796Z,0
2018-01-23T05:14:37.815Z,0
2018-01-23T05:15:37.484Z,0
2018-01-23T05:16:37.210Z,0
2018-01-23T05:17:37.490Z,0
2018-01-23T05:18:37.173Z,0
2018-01-23T05:19:37.700Z,0
2018-01-23T05:20:37.136Z,0
2018-01-23T05:21:37.658Z,0
2018-01-23T05:22:37.386Z,0
2018-01-23T05:23:37.641Z,0
2018-01-23T05:24:37.886Z,0
2018-01-23T05:25:37.048Z,0
2018-01-23T05:26:37.299Z,0
2018-01-23T05:27:37.281Z,0
2018-01-23T05:28:36.993Z,0
2018-01-23T05:29:37.300Z,0
2018-01-23T05:30:37.251Z,0
2018-01-23T05:31:36.942Z,0
2018-01-23T05:32:36.934Z,0
2018-01-23T05:33:37.717Z,0
2018-01-23T05:34:36.905Z,0
2018-01-23T05:35:37.148Z,0
2018-01-23T05:36:37.139Z,0
2018-01-23T05:37:36.881Z,0
2018-01-23T05:38:37.105Z,0
2018-01-23T05:39:37.400Z,0
2018-01-23T05:40:37.352Z,0
2018-01-23T05:41:37.311Z,0
2018-01-23T05:42:37.040Z,0
2018-01-23T05:43:37.063Z,0
2018-01-23T05:44:36.985Z,0
2018-01-23T05:45:36.982Z,0
2018-01-23T05:46:36.981Z,0
2018-01-23T05:47:37.490Z,0
2018-01-23T05:48:36.940Z,0
2018-01-23T05:49:36.642Z,0
2018-01-23T05:50:36.903Z,0
2018-01-23T05:51:36.599Z,0
2018-01-23T05:52:37.127Z,0
2018-01-23T05:53:36.836Z,0
2018-01-23T05:54:36.829Z,0
2018-01-23T05:55:36.837Z,0
2018-01-23T05:56:36.784Z,0
2018-01-23T05:57:36.493Z,0
2018-01-23T05:58:36.498Z,0
2018-01-23T05:59:36.732Z,0
2018-01-23T06:00:36.992Z,0
2018-01-23T06:01:36.694Z,0
2018-01-23T06:02:36.679Z,0
2018-01-23T06:03:36.406Z,0
2018-01-23T06:04:36.381Z,0
2018-01-23T06:05:36.630Z,0
2018-01-23T06:06:36.895Z,0
2018-01-23T06:07:36.604Z,0
2018-01-23T06:08:36.324Z,0
2018-01-23T06:09:36.827Z,0
2018-01-23T06:10:36.832Z,0
2018-01-23T06:11:36.541Z,0
2018-01-23T06:12:36.505Z,0
2018-01-23T06:13:36.505Z,0
2018-01-23T06:14:36.506Z,0
2018-01-23T06:15:36.452Z,0
2018-01-23T06:16:36.438Z,0
2018-01-23T06:17:36.694Z,0
2018-01-23T06:18:36.408Z,0
2018-01-23T06:19:36.668Z,0
2018-01-23T06:20:36.643Z,0
2018-01-23T06:21:36.349Z,0
2018-01-23T06:22:36.874Z,0
2018-01-23T06:23:36.051Z,0
2018-01-23T06:24:36.567Z,0
2018-01-23T06:25:36.011Z,0
2018-01-23T06:26:36.600Z,4
2018-01-23T06:27:36.515Z,0
2018-01-23T06:28:36.234Z,4
2018-01-23T06:29:35.946Z,4
2018-01-23T06:30:36.488Z,4
2018-01-23T06:31:36.177Z,8
2018-01-23T06:32:36.160Z,8
2018-01-23T06:33:35.881Z,8
2018-01-23T06:34:36.126Z,8
2018-01-23T06:35:36.120Z,8
2018-01-23T06:36:36.101Z,12
2018-01-23T06:37:36.078Z,12
2018-01-23T06:38:36.345Z,16
2018-01-23T06:39:36.055Z,16
2018-01-23T06:40:35.756Z,20
2018-01-23T06:41:36.022Z,24
2018-01-23T06:42:36.259Z,24
2018-01-23T06:43:35.700Z,24
2018-01-23T06:44:35.685Z,32
2018-01-23T06:45:36.228Z,32
2018-01-23T06:46:35.930Z,36
2018-01-23T06:47:36.193Z,40
2018-01-23T06:48:35.907Z,48
2018-01-23T06:49:35.869Z,52
2018-01-23T06:50:36.123Z,56
2018-01-23T06:51:35.836Z,64
2018-01-23T06:52:35.583Z,60
2018-01-23T06:53:35.808Z,60
2018-01-23T06:54:35.791Z,60
2018-01-23T06:55:35.768Z,64
2018-01-23T06:56:35.769Z,64
2018-01-23T06:57:35.737Z,64
2018-01-23T06:58:35.986Z,68
2018-01-23T06:59:35.732Z,72
2018-01-23T07:00:35.703Z,84
2018-01-23T07:01:35.933Z,100
2018-01-23T07:02:35.650Z,116
2018-01-23T07:03:35.639Z,128
2018-01-23T07:04:35.354Z,152
2018-01-23T07:05:35.873Z,160
2018-01-23T07:06:35.849Z,172
2018-01-23T07:07:35.872Z,180
2018-01-23T07:08:35.833Z,188
2018-01-23T07:09:35.282Z,200
2018-01-23T07:10:35.240Z,212
2018-01-23T07:11:35.251Z,216
2018-01-23T07:12:35.477Z,220
2018-01-23T07:13:35.190Z,244
2018-01-23T07:14:35.491Z,260
2018-01-23T07:15:35.716Z,280
2018-01-23T07:16:35.691Z,288
2018-01-23T07:17:35.934Z,268
2018-01-23T07:18:35.147Z,268
2018-01-23T07:19:35.632Z,280
2018-01-23T07:20:35.401Z,312
2018-01-23T07:21:35.367Z,296
2018-01-23T07:22:35.581Z,300
2018-01-23T07:23:35.293Z,268
2018-01-23T07:24:35.273Z,264
2018-01-23T07:25:35.012Z,260
2018-01-23T07:26:35.015Z,248
2018-01-23T07:27:35.227Z,244
2018-01-23T07:28:35.213Z,276
2018-01-23T07:29:35.466Z,324
2018-01-23T07:30:35.214Z,356
2018-01-23T07:31:35.432Z,356
2018-01-23T07:32:35.139Z,360
2018-01-23T07:33:34.855Z,364
2018-01-23T07:34:35.125Z,388
2018-01-23T07:35:35.086Z,436
2018-01-23T07:36:35.344Z,532
2018-01-23T07:37:35.065Z,576
2018-01-23T07:38:35.084Z,652
2018-01-23T07:39:35.322Z,700
2018-01-23T07:40:35.018Z,764
2018-01-23T07:41:34.717Z,852
2018-01-23T07:42:34.986Z,828
2018-01-23T07:43:34.698Z,712
2018-01-23T07:44:34.958Z,736
2018-01-23T07:45:34.951Z,792
2018-01-23T07:46:34.903Z,792
2018-01-23T07:47:37.501Z,876
2018-01-23T07:48:34.873Z,928
2018-01-23T07:49:34.601Z,820
2018-01-23T07:50:35.106Z,764
2018-01-23T07:51:34.551Z,808
2018-01-23T07:52:34.799Z,848
2018-01-23T07:53:35.057Z,968
2018-01-23T07:54:34.789Z,1092
2018-01-23T07:55:35.300Z,1088
2018-01-23T07:56:34.730Z,1296
2018-01-23T07:57:34.715Z,1264
2018-01-23T07:58:34.721Z,1120
2018-01-23T07:59:34.701Z,944
2018-01-23T08:00:34.405Z,848
2018-01-23T08:01:34.663Z,836
2018-01-23T08:02:35.197Z,904
2018-01-23T08:03:34.368Z,956
2018-01-23T08:04:34.602Z,1036
2018-01-23T08:05:34.315Z,1188
2018-01-23T08:06:34.846Z,1252
2018-01-23T08:07:34.279Z,1276
2018-01-23T08:08:34.567Z,1388
2018-01-23T08:09:34.795Z,1528
2018-01-23T08:10:34.228Z,1656
2018-01-23T08:11:34.488Z,1984
2018-01-23T08:12:34.487Z,1964
2018-01-23T08:13:34.723Z,1856
2018-01-23T08:14:34.707Z,1704
2018-01-23T08:15:34.712Z,1652
2018-01-23T08:16:34.397Z,1580
2018-01-23T08:17:34.401Z,1548
2018-01-23T08:18:34.400Z,1548
2018-01-23T08:19:34.700Z,1524
2018-01-23T08:20:34.347Z,1464
2018-01-23T08:21:34.315Z,1448
2018-01-23T08:22:36.395Z,1440
2018-01-23T08:23:34.298Z,1612
2018-01-23T08:24:34.269Z,1688
2018-01-23T08:25:34.273Z,1564
2018-01-23T08:26:34.234Z,1544
2018-01-23T08:27:34.490Z,1684
2018-01-23T08:28:33.930Z,2040
2018-01-23T08:29:34.202Z,2188
2018-01-23T08:30:34.461Z,2428
2018-01-23T08:31:33.889Z,2464
2018-01-23T08:32:34.403Z,2660
2018-01-23T08:33:34.115Z,2904
2018-01-23T08:34:33.840Z,2804
2018-01-23T08:35:34.085Z,2572
2018-01-23T08:36:34.065Z,2364
2018-01-23T08:37:34.052Z,2488
2018-01-23T08:38:34.036Z,2616
2018-01-23T08:39:34.030Z,2584
2018-01-23T08:40:34.542Z,2308
2018-01-23T08:41:33.988Z,2228
2018-01-23T08:42:33.702Z,2440
2018-01-23T08:43:33.681Z,2636
2018-01-23T08:44:33.935Z,2628
2018-01-23T08:45:33.937Z,2592
2018-01-23T08:46:34.207Z,2616
2018-01-23T08:47:33.615Z,2568
2018-01-23T08:48:33.870Z,2580
2018-01-23T08:49:33.593Z,2760
2018-01-23T08:50:34.460Z,2852
2018-01-23T08:51:33.552Z,2884
2018-01-23T08:52:33.535Z,2900
2018-01-23T08:53:33.550Z,2984
2018-01-23T08:54:33.784Z,3120
2018-01-23T08:55:33.786Z,3116
2018-01-23T08:56:33.477Z,3148
2018-01-23T08:57:33.730Z,2980
2018-01-23T08:58:33.709Z,2812
2018-01-23T08:59:33.691Z,2560
2018-01-23T09:00:33.408Z,2696
2018-01-23T09:01:33.661Z,2832
2018-01-23T09:02:33.643Z,2848
2018-01-23T09:03:33.982Z,2680
2018-01-23T09:04:33.631Z,2376
2018-01-23T09:05:33.596Z,2300
2018-01-23T09:06:33.329Z,2316
2018-01-23T09:07:34.119Z,2432
2018-01-23T09:08:33.278Z,2548
2018-01-23T09:09:33.548Z,2496
2018-01-23T09:10:33.517Z,2584
2018-01-23T09:11:33.518Z,2844
2018-01-23T09:12:33.482Z,3084
2018-01-23T09:13:33.467Z,2892
2018-01-23T09:14:33.750Z,2740
2018-01-23T09:15:33.462Z,3104
2018-01-23T09:16:33.958Z,3312
2018-01-23T09:17:33.411Z,3076
2018-01-23T09:18:33.679Z,2876
2018-01-23T09:19:33.642Z,2664
2018-01-23T09:20:33.894Z,2532
2018-01-23T09:21:33.071Z,2496
2018-01-23T09:22:33.323Z,2592
2018-01-23T09:23:33.327Z,2616
2018-01-23T09:24:33.024Z,2640
2018-01-23T09:25:33.021Z,2652
2018-01-23T09:26:33.357Z,2808
2018-01-23T09:27:32.988Z,2880
2018-01-23T09:28:33.256Z,3052
2018-01-23T09:29:33.223Z,3172
2018-01-23T09:30:33.203Z,3048
2018-01-23T09:31:33.448Z,2940
2018-01-23T09:32:33.167Z,2860
2018-01-23T09:33:33.149Z,2848
2018-01-23T09:34:33.155Z,2964
2018-01-23T09:35:32.845Z,3084
2018-01-23T09:36:33.370Z,3340
2018-01-23T09:37:33.106Z,3332
2018-01-23T09:38:33.077Z,3300
2018-01-23T09:39:33.323Z,3592
2018-01-23T09:40:33.306Z,3716
2018-01-23T09:41:33.027Z,3636
2018-01-23T09:42:33.270Z,3820
2018-01-23T09:43:33.006Z,3844
2018-01-23T09:44:33.518Z,3916
2018-01-23T09:45:32.959Z,3980
2018-01-23T09:46:32.984Z,4084
2018-01-23T09:47:32.923Z,4536
2018-01-23T09:48:32.676Z,4504
2018-01-23T09:49:32.622Z,4360
2018-01-23T09:50:32.876Z,4372
2018-01-23T09:51:32.882Z,4364
2018-01-23T09:52:32.861Z,4352
2018-01-23T09:53:32.871Z,4236
2018-01-23T09:54:32.556Z,4284
2018-01-23T09:55:32.849Z,4316
2018-01-23T09:56:33.132Z,4196
2018-01-23T09:57:33.067Z,4236
2018-01-23T09:58:32.477Z,4332
2018-01-23T09:59:33.003Z,4220
2018-01-23T10:00:32.744Z,4136
2018-01-23T10:01:32.973Z,4104
2018-01-23T10:02:32.449Z,4148
2018-01-23T10:03:32.941Z,4388
2018-01-23T10:04:32.926Z,4664
2018-01-23T10:05:32.641Z,4964
2018-01-23T10:06:32.360Z,5232
2018-01-23T10:07:32.630Z,5396
2018-01-23T10:08:32.609Z,5312
2018-01-23T10:09:32.306Z,5404
2018-01-23T10:10:32.316Z,5476
2018-01-23T10:11:32.548Z,5388
2018-01-23T10:12:32.532Z,5300
2018-01-23T10:13:32.518Z,5248
2018-01-23T10:14:32.240Z,5160
2018-01-23T10:15:32.508Z,5368
2018-01-23T10:16:32.489Z,5476
2018-01-23T10:17:32.455Z,5680
2018-01-23T10:18:32.441Z,5860
2018-01-23T10:19:32.427Z,6048
2018-01-23T10:20:32.409Z,6304
2018-01-23T10:21:32.397Z,6384
2018-01-23T10:22:32.376Z,6408
2018-01-23T10:23:32.630Z,6456
2018-01-23T10:24:32.912Z,6520
2018-01-23T10:25:32.328Z,6584
2018-01-23T10:26:32.585Z,6384
2018-01-23T10:27:32.295Z,6188
2018-01-23T10:28:32.280Z,6544
2018-01-23T10:29:32.272Z,7096
2018-01-23T10:30:32.524Z,6808
2018-01-23T10:31:32.240Z,6756
2018-01-23T10:32:31.953Z,6784
2018-01-23T10:33:32.477Z,6900
2018-01-23T10:34:32.241Z,7012
2018-01-23T10:35:31.907Z,6956
2018-01-23T10:36:32.454Z,7224
2018-01-23T10:37:31.891Z,7308
2018-01-23T10:38:32.140Z,7320
2018-01-23T10:39:32.388Z,7300
2018-01-23T10:40:31.831Z,7320
2018-01-23T10:41:32.088Z,7308
2018-01-23T10:42:32.071Z,7296
2018-01-23T10:43:32.076Z,7324
2018-01-23T10:44:31.773Z,7344
2018-01-23T10:45:31.758Z,7332
2018-01-23T10:46:31.744Z,7428
2018-01-23T10:47:31.729Z,7528
2018-01-23T10:48:31.711Z,7648
2018-01-23T10:49:31.967Z,7768
2018-01-23T10:50:31.954Z,7808
2018-01-23T10:51:31.937Z,7884
2018-01-23T10:52:31.663Z,7888
2018-01-23T10:53:32.184Z,7820
2018-01-23T10:54:31.896Z,7752
2018-01-23T10:55:32.161Z,7684
2018-01-23T10:56:31.881Z,7636
2018-01-23T10:57:31.596Z,7564
2018-01-23T10:58:32.115Z,7512
2018-01-23T10:59:31.854Z,7448
2018-01-23T11:00:31.805Z,7332
2018-01-23T11:01:31.842Z,7172
2018-01-23T11:02:31.506Z,7124
2018-01-23T11:03:31.490Z,7072
2018-01-23T11:04:32.015Z,7080
2018-01-23T11:05:31.504Z,7116
2018-01-23T11:06:31.994Z,6972
2018-01-23T11:07:31.724Z,7024
2018-01-23T11:08:32.235Z,6828
2018-01-23T11:09:31.404Z,6152
2018-01-23T11:10:31.932Z,5500
2018-01-23T11:11:31.373Z,5172
2018-01-23T11:12:31.904Z,4896
2018-01-23T11:13:31.650Z,4632
2018-01-23T11:14:31.603Z,4552
2018-01-23T11:15:31.314Z,4896
2018-01-23T11:16:31.851Z,5408
2018-01-23T11:17:31.557Z,6524
2018-01-23T11:18:31.541Z,7148
2018-01-23T11:19:31.829Z,7232
2018-01-23T11:20:31.242Z,7008
2018-01-23T11:21:31.494Z,6368
2018-01-23T11:22:31.492Z,5856
2018-01-23T11:23:31.202Z,5936
2018-01-23T11:24:31.193Z,6344
2018-01-23T11:25:31.165Z,6036
2018-01-23T11:26:31.698Z,5620
2018-01-23T11:27:31.413Z,5784
2018-01-23T11:28:31.395Z,5684
2018-01-23T11:29:31.662Z,5800
2018-01-23T11:30:31.091Z,6092
2018-01-23T11:31:31.360Z,6108
2018-01-23T11:32:31.341Z,6272
2018-01-23T11:33:31.316Z,6352
2018-01-23T11:34:31.301Z,6744
2018-01-23T11:35:31.558Z,6828
2018-01-23T11:36:31.013Z,6564
2018-01-23T11:37:31.274Z,6248
2018-01-23T11:38:31.521Z,5992
2018-01-23T11:39:31.782Z,5704
2018-01-23T11:40:31.485Z,5872
2018-01-23T11:41:31.204Z,5868
2018-01-23T11:42:30.914Z,6072
2018-01-23T11:43:30.901Z,6180
2018-01-23T11:44:31.458Z,6052
2018-01-23T11:45:31.421Z,5828
2018-01-23T11:46:31.124Z,5956
2018-01-23T11:47:31.427Z,5952
2018-01-23T11:48:30.826Z,5472
2018-01-23T11:49:31.085Z,5100
2018-01-23T11:50:31.094Z,4972
2018-01-23T11:51:30.828Z,4812
2018-01-23T11:52:30.769Z,4688
2018-01-23T11:53:30.766Z,4620
2018-01-23T11:54:31.028Z,5024
2018-01-23T11:55:31.279Z,4988
2018-01-23T11:56:30.719Z,5452
2018-01-23T11:57:31.228Z,5268
2018-01-23T11:58:31.223Z,5112
2018-01-23T11:59:30.935Z,5276
2018-01-23T12:00:30.653Z,5032
2018-01-23T12:01:31.180Z,4820
2018-01-23T12:02:30.617Z,5020
2018-01-23T12:03:30.883Z,4928
2018-01-23T12:04:30.866Z,5152
2018-01-23T12:05:31.133Z,5640
2018-01-23T12:06:30.827Z,5476
2018-01-23T12:07:30.540Z,5632
2018-01-23T12:08:30.549Z,5364
2018-01-23T12:09:30.525Z,4648
2018-01-23T12:10:30.764Z,4852
2018-01-23T12:11:31.029Z,5352
2018-01-23T12:12:30.463Z,5324
2018-01-23T12:13:30.734Z,5500
2018-01-23T12:14:31.000Z,5976
2018-01-23T12:15:30.422Z,5564
2018-01-23T12:16:30.720Z,5244
2018-01-23T12:17:30.939Z,5036
2018-01-23T12:18:30.660Z,5656
2018-01-23T12:19:30.629Z,5600
2018-01-23T12:20:30.365Z,5680
2018-01-23T12:21:30.354Z,5656
2018-01-23T12:22:30.584Z,5560
2018-01-23T12:23:30.298Z,5584
2018-01-23T12:24:30.293Z,5716
2018-01-23T12:25:30.538Z,5548
2018-01-23T12:26:30.795Z,5760
2018-01-23T12:27:30.521Z,5800
2018-01-23T12:28:30.224Z,6248
2018-01-23T12:29:30.254Z,6080
2018-01-23T12:30:31.024Z,5936
2018-01-23T12:31:30.180Z,5964
2018-01-23T12:32:30.443Z,6092
2018-01-23T12:33:30.151Z,5996
2018-01-23T12:34:30.402Z,6024
2018-01-23T12:35:30.493Z,6108
2018-01-23T12:36:30.666Z,5644
2018-01-23T12:37:30.369Z,5548
2018-01-23T12:38:30.341Z,5356
2018-01-23T12:39:30.342Z,5580
2018-01-23T12:40:30.334Z,5296
2018-01-23T12:41:30.028Z,5056
2018-01-23T12:42:30.558Z,4924
2018-01-23T12:43:30.541Z,5348
2018-01-23T12:44:30.795Z,5728
2018-01-23T12:45:30.533Z,5524
2018-01-23T12:46:30.530Z,5548
2018-01-23T12:47:30.228Z,5872
2018-01-23T12:48:30.193Z,5792
2018-01-23T12:49:30.454Z,5660
2018-01-23T12:50:30.455Z,5332
2018-01-23T12:51:29.882Z,5424
2018-01-23T12:52:29.865Z,5124
2018-01-23T12:53:29.850Z,5056
2018-01-23T12:54:29.833Z,5152
2018-01-23T12:55:30.115Z,5140
2018-01-23T12:56:29.804Z,5080
2018-01-23T12:57:30.346Z,5008
2018-01-23T12:58:30.061Z,5040
2018-01-23T12:59:30.074Z,5032
2018-01-23T13:00:29.743Z,4748
2018-01-23T13:01:29.999Z,4048
2018-01-23T13:02:29.716Z,4340
2018-01-23T13:03:29.968Z,4252
2018-01-23T13:04:30.264Z,4208
2018-01-23T13:05:30.235Z,4088
2018-01-23T13:06:29.656Z,4272
2018-01-23T13:07:29.922Z,4260
2018-01-23T13:08:29.625Z,4260
2018-01-23T13:09:29.898Z,4276
2018-01-23T13:10:29.865Z,4264
2018-01-23T13:11:29.858Z,4032
2018-01-23T13:12:30.487Z,4212
2018-01-23T13:13:29.561Z,3944
2018-01-23T13:14:29.536Z,3896
2018-01-23T13:15:29.797Z,3452
2018-01-23T13:16:29.779Z,3040
2018-01-23T13:17:29.778Z,2936
2018-01-23T13:18:29.747Z,2976
2018-01-23T13:19:30.008Z,2944
2018-01-23T13:20:29.447Z,2920
2018-01-23T13:21:29.975Z,3040
2018-01-23T13:22:29.415Z,3048
2018-01-23T13:23:29.401Z,3012
2018-01-23T13:24:29.929Z,2828
2018-01-23T13:25:29.380Z,2984
2018-01-23T13:26:29.630Z,2764
2018-01-23T13:27:29.881Z,2704
2018-01-23T13:28:29.327Z,2688
2018-01-23T13:29:29.350Z,2644
2018-01-23T13:30:29.575Z,2556
2018-01-23T13:31:29.841Z,2664
2018-01-23T13:32:29.811Z,2628
2018-01-23T13:33:29.251Z,2392
2018-01-23T13:34:29.237Z,2440
2018-01-23T13:35:29.511Z,2492
2018-01-23T13:36:29.751Z,2548
2018-01-23T13:37:29.201Z,2396
2018-01-23T13:38:29.173Z,2500
2018-01-23T13:39:29.425Z,2688
2018-01-23T13:40:29.162Z,2772
2018-01-23T13:41:29.129Z,2784
2018-01-23T13:42:29.934Z,2552
2018-01-23T13:43:29.102Z,2480
2018-01-23T13:44:29.087Z,2348
2018-01-23T13:45:29.344Z,2500
2018-01-23T13:46:29.342Z,2632
2018-01-23T13:47:29.578Z,2692
2018-01-23T13:48:29.023Z,2636
2018-01-23T13:49:29.317Z,2488
2018-01-23T13:50:29.289Z,2624
2018-01-23T13:51:29.536Z,2544
2018-01-23T13:52:28.962Z,2440
2018-01-23T13:53:28.989Z,2356
2018-01-23T13:54:29.493Z,2376
2018-01-23T13:55:29.197Z,2452
2018-01-23T13:56:29.170Z,2432
2018-01-23T13:57:28.890Z,2468
2018-01-23T13:58:29.160Z,2484
2018-01-23T13:59:29.416Z,2464
2018-01-23T14:00:29.113Z,2484
2018-01-23T14:01:28.886Z,2756